sensor_id;sensor_type;location;lat;lon;timestamp;pressure;altitude;pressure_sealevel;temperature;humidity
62948;BME280;51940;52.126;-0.994;2022-10-17T00:00:23;99752.55;;;13.68;100.00
62948;BME280;51940;52.126;-0.994;2022-10-17T00:02:48;99750.01;;;13.69;100.00
62948;BME280;51940;52.126;-0.994;2022-10-17T00:05:14;99748.88;;;13.70;100.00
62948;BME280;51940;52.126;-0.994;2022-10-17T00:07:39;99746.77;;;13.69;100.00
62948;BME280;51940;52.126;-0.994;2022-10-17T00:10:06;99742.48;;;13.69;100.00
62948;BME280;51940;52.126;-0.994;2022-10-17T00:12:32;99747.38;;;13.67;100.00
62948;BME280;51940;52.126;-0.994;2022-10-17T00:14:57;99746.15;;;13.67;100.00
62948;BME280;51940;52.126;-0.994;2022-10-17T00:17:22;99746.22;;;13.65;100.00
62948;BME280;51940;52.126;-0.994;2022-10-17T00:19:48;99746.76;;;13.65;100.00
62948;BME280;51940;52.126;-0.994;2022-10-17T00:22:13;99752.04;;;13.64;100.00
62948;BME280;51940;52.126;-0.994;2022-10-17T00:24:39;99754.12;;;13.61;100.00
62948;BME280;51940;52.126;-0.994;2022-10-17T00:27:04;99749.19;;;13.60;100.00
62948;BME280;51940;52.126;-0.994;2022-10-17T00:29:30;99759.83;;;13.58;100.00
62948;BME280;51940;52.126;-0.994;2022-10-17T00:31:56;99767.04;;;13.57;100.00
62948;BME280;51940;52.126;-0.994;2022-10-17T00:34:22;99769.85;;;13.54;100.00
62948;BME280;51940;52.126;-0.994;2022-10-17T00:36:48;99770.23;;;13.53;100.00
62948;BME280;51940;52.126;-0.994;2022-10-17T00:39:13;99770.59;;;13.53;100.00
62948;BME280;51940;52.126;-0.994;2022-10-17T00:41:39;99770.38;;;13.54;100.00
62948;BME280;51940;52.126;-0.994;2022-10-17T00:44:07;99768.55;;;13.55;100.00
62948;BME280;51940;52.126;-0.994;2022-10-17T00:46:52;99769.58;;;13.56;100.00
62948;BME280;51940;52.126;-0.994;2022-10-17T00:49:18;99769.39;;;13.56;100.00
62948;BME280;51940;52.126;-0.994;2022-10-17T00:51:53;99781.15;;;13.58;100.00
62948;BME280;51940;52.126;-0.994;2022-10-17T00:54:22;99785.23;;;13.59;100.00
62948;BME280;51940;52.126;-0.994;2022-10-17T00:56:50;99784.21;;;13.62;100.00
62948;BME280;51940;52.126;-0.994;2022-10-17T00:59:17;99782.89;;;13.63;100.00
62948;BME280;51940;52.126;-0.994;2022-10-17T01:01:50;99777.98;;;13.64;100.00
62948;BME280;51940;52.126;-0.994;2022-10-17T01:04:18;99780.95;;;13.66;100.00
62948;BME280;51940;52.126;-0.994;2022-10-17T01:06:44;99788.17;;;13.65;100.00
62948;BME280;51940;52.126;-0.994;2022-10-17T01:09:09;99793.42;;;13.64;100.00
62948;BME280;51940;52.126;-0.994;2022-10-17T01:11:39;99792.56;;;13.63;100.00
62948;BME280;51940;52.126;-0.994;2022-10-17T01:16:56;99785.41;;;13.59;100.00
62948;BME280;51940;52.126;-0.994;2022-10-17T01:24:54;99789.84;;;13.52;100.00
62948;BME280;51940;52.126;-0.994;2022-10-17T01:27:34;99792.27;;;13.49;100.00
62948;BME280;51940;52.126;-0.994;2022-10-17T01:30:22;99795.61;;;13.47;100.00
62948;BME280;51940;52.126;-0.994;2022-10-17T01:33:11;99795.45;;;13.43;100.00
62948;BME280;51940;52.126;-0.994;2022-10-17T01:35:47;99802.15;;;13.41;100.00
62948;BME280;51940;52.126;-0.994;2022-10-17T01:40:55;99813.45;;;13.41;100.00
62948;BME280;51940;52.126;-0.994;2022-10-17T01:43:36;99811.11;;;13.41;100.00
62948;BME280;51940;52.126;-0.994;2022-10-17T01:48:45;99820.06;;;13.41;100.00
62948;BME280;51940;52.126;-0.994;2022-10-17T01:51:21;99820.09;;;13.40;100.00
62948;BME280;51940;52.126;-0.994;2022-10-17T01:53:55;99818.17;;;13.39;100.00
62948;BME280;51940;52.126;-0.994;2022-10-17T01:56:24;99815.14;;;13.39;100.00
62948;BME280;51940;52.126;-0.994;2022-10-17T01:58:56;99817.97;;;13.40;100.00
62948;BME280;51940;52.126;-0.994;2022-10-17T02:01:25;99825.30;;;13.40;100.00
62948;BME280;51940;52.126;-0.994;2022-10-17T02:03:53;99825.07;;;13.41;100.00
62948;BME280;51940;52.126;-0.994;2022-10-17T02:06:20;99823.27;;;13.42;100.00
62948;BME280;51940;52.126;-0.994;2022-10-17T02:08:48;99823.05;;;13.43;100.00
62948;BME280;51940;52.126;-0.994;2022-10-17T02:11:19;99828.50;;;13.45;100.00
62948;BME280;51940;52.126;-0.994;2022-10-17T02:14:03;99842.55;;;13.47;100.00
62948;BME280;51940;52.126;-0.994;2022-10-17T02:19:32;99836.84;;;13.46;100.00
62948;BME280;51940;52.126;-0.994;2022-10-17T02:24:47;99844.30;;;13.44;100.00
62948;BME280;51940;52.126;-0.994;2022-10-17T02:28:06;99854.72;;;13.43;100.00
62948;BME280;51940;52.126;-0.994;2022-10-17T02:30:27;99854.70;;;13.44;100.00
62948;BME280;51940;52.126;-0.994;2022-10-17T02:32:58;99863.59;;;13.45;100.00
62948;BME280;51940;52.126;-0.994;2022-10-17T02:35:29;99868.15;;;13.47;100.00
62948;BME280;51940;52.126;-0.994;2022-10-17T02:37:56;99866.06;;;13.50;100.00
62948;BME280;51940;52.126;-0.994;2022-10-17T02:40:23;99862.96;;;13.51;100.00
62948;BME280;51940;52.126;-0.994;2022-10-17T02:42:50;99865.98;;;13.52;100.00
62948;BME280;51940;52.126;-0.994;2022-10-17T02:45:18;99867.23;;;13.52;100.00
62948;BME280;51940;52.126;-0.994;2022-10-17T02:48:05;99863.98;;;13.53;100.00
62948;BME280;51940;52.126;-0.994;2022-10-17T02:50:51;99866.44;;;13.54;100.00
62948;BME280;51940;52.126;-0.994;2022-10-17T02:53:29;99861.27;;;13.53;100.00
62948;BME280;51940;52.126;-0.994;2022-10-17T02:56:01;99862.73;;;13.52;100.00
62948;BME280;51940;52.126;-0.994;2022-10-17T02:58:30;99865.23;;;13.53;100.00
62948;BME280;51940;52.126;-0.994;2022-10-17T03:00:57;99869.91;;;13.52;100.00
62948;BME280;51940;52.126;-0.994;2022-10-17T03:03:29;99867.79;;;13.51;100.00
62948;BME280;51940;52.126;-0.994;2022-10-17T03:05:54;99876.05;;;13.51;100.00
62948;BME280;51940;52.126;-0.994;2022-10-17T03:08:21;99879.66;;;13.51;100.00
62948;BME280;51940;52.126;-0.994;2022-10-17T03:10:47;99878.05;;;13.51;100.00
62948;BME280;51940;52.126;-0.994;2022-10-17T03:13:13;99875.54;;;13.51;100.00
62948;BME280;51940;52.126;-0.994;2022-10-17T03:15:38;99880.58;;;13.50;100.00
62948;BME280;51940;52.126;-0.994;2022-10-17T03:18:04;99877.39;;;13.49;100.00
62948;BME280;51940;52.126;-0.994;2022-10-17T03:20:29;99874.39;;;13.48;100.00
62948;BME280;51940;52.126;-0.994;2022-10-17T03:22:55;99864.56;;;13.47;100.00
62948;BME280;51940;52.126;-0.994;2022-10-17T03:25:20;99863.34;;;13.47;100.00
62948;BME280;51940;52.126;-0.994;2022-10-17T03:27:45;99851.05;;;13.45;100.00
62948;BME280;51940;52.126;-0.994;2022-10-17T03:30:11;99850.41;;;13.44;100.00
62948;BME280;51940;52.126;-0.994;2022-10-17T03:32:36;99853.47;;;13.43;100.00
62948;BME280;51940;52.126;-0.994;2022-10-17T03:35:02;99855.80;;;13.43;100.00
62948;BME280;51940;52.126;-0.994;2022-10-17T03:37:28;99855.50;;;13.42;100.00
62948;BME280;51940;52.126;-0.994;2022-10-17T03:39:53;99852.67;;;13.41;100.00
62948;BME280;51940;52.126;-0.994;2022-10-17T03:42:19;99854.96;;;13.42;100.00
62948;BME280;51940;52.126;-0.994;2022-10-17T03:44:44;99854.44;;;13.42;100.00
62948;BME280;51940;52.126;-0.994;2022-10-17T03:47:09;99853.89;;;13.42;100.00
62948;BME280;51940;52.126;-0.994;2022-10-17T03:49:35;99848.52;;;13.41;100.00
62948;BME280;51940;52.126;-0.994;2022-10-17T03:52:01;99855.66;;;13.42;100.00
62948;BME280;51940;52.126;-0.994;2022-10-17T03:54:26;99858.53;;;13.43;100.00
62948;BME280;51940;52.126;-0.994;2022-10-17T03:56:52;99861.05;;;13.42;100.00
62948;BME280;51940;52.126;-0.994;2022-10-17T03:59:17;99866.77;;;13.42;100.00
62948;BME280;51940;52.126;-0.994;2022-10-17T04:01:43;99870.38;;;13.42;100.00
62948;BME280;51940;52.126;-0.994;2022-10-17T04:04:08;99868.77;;;13.42;100.00
62948;BME280;51940;52.126;-0.994;2022-10-17T04:06:34;99871.98;;;13.42;100.00
62948;BME280;51940;52.126;-0.994;2022-10-17T04:09:00;99876.48;;;13.42;100.00
62948;BME280;51940;52.126;-0.994;2022-10-17T04:11:25;99877.73;;;13.42;100.00
62948;BME280;51940;52.126;-0.994;2022-10-17T04:13:53;99876.84;;;13.42;100.00
62948;BME280;51940;52.126;-0.994;2022-10-17T04:16:19;99868.95;;;13.42;100.00
62948;BME280;51940;52.126;-0.994;2022-10-17T04:18:44;99889.02;;;13.42;100.00
62948;BME280;51940;52.126;-0.994;2022-10-17T04:21:10;99891.17;;;13.41;100.00
62948;BME280;51940;52.126;-0.994;2022-10-17T04:23:37;99893.21;;;13.40;100.00
62948;BME280;51940;52.126;-0.994;2022-10-17T04:26:03;99895.73;;;13.40;100.00
62948;BME280;51940;52.126;-0.994;2022-10-17T04:28:30;99895.52;;;13.40;100.00
62948;BME280;51940;52.126;-0.994;2022-10-17T04:30:59;99896.40;;;13.40;100.00
62948;BME280;51940;52.126;-0.994;2022-10-17T04:33:25;99903.73;;;13.41;100.00
62948;BME280;51940;52.126;-0.994;2022-10-17T04:36:00;99906.05;;;13.41;100.00
62948;BME280;51940;52.126;-0.994;2022-10-17T04:38:27;99913.57;;;13.41;100.00
62948;BME280;51940;52.126;-0.994;2022-10-17T04:40:53;99917.33;;;13.41;100.00
62948;BME280;51940;52.126;-0.994;2022-10-17T04:43:19;99920.92;;;13.40;100.00
62948;BME280;51940;52.126;-0.994;2022-10-17T04:45:44;99930.45;;;13.40;100.00
62948;BME280;51940;52.126;-0.994;2022-10-17T04:48:10;99929.27;;;13.39;100.00
62948;BME280;51940;52.126;-0.994;2022-10-17T04:50:35;99931.45;;;13.38;100.00
62948;BME280;51940;52.126;-0.994;2022-10-17T04:53:01;99935.75;;;13.38;100.00
62948;BME280;51940;52.126;-0.994;2022-10-17T04:55:26;99930.39;;;13.37;100.00
62948;BME280;51940;52.126;-0.994;2022-10-17T04:57:51;99939.88;;;13.38;100.00
62948;BME280;51940;52.126;-0.994;2022-10-17T05:00:17;99937.76;;;13.37;100.00
62948;BME280;51940;52.126;-0.994;2022-10-17T05:02:42;99937.95;;;13.37;100.00
62948;BME280;51940;52.126;-0.994;2022-10-17T05:05:08;99942.98;;;13.37;100.00
62948;BME280;51940;52.126;-0.994;2022-10-17T05:07:33;99942.83;;;13.36;100.00
62948;BME280;51940;52.126;-0.994;2022-10-17T05:09:58;99953.78;;;13.35;100.00
62948;BME280;51940;52.126;-0.994;2022-10-17T05:12:24;99959.89;;;13.35;100.00
62948;BME280;51940;52.126;-0.994;2022-10-17T05:14:49;99961.73;;;13.34;100.00
62948;BME280;51940;52.126;-0.994;2022-10-17T05:17:15;99964.27;;;13.34;100.00
62948;BME280;51940;52.126;-0.994;2022-10-17T05:19:40;99957.45;;;13.33;100.00
62948;BME280;51940;52.126;-0.994;2022-10-17T05:22:06;99952.98;;;13.33;100.00
62948;BME280;51940;52.126;-0.994;2022-10-17T05:24:31;99959.42;;;13.33;100.00
62948;BME280;51940;52.126;-0.994;2022-10-17T05:26:56;99969.30;;;13.33;100.00
62948;BME280;51940;52.126;-0.994;2022-10-17T05:29:22;99982.55;;;13.33;100.00
62948;BME280;51940;52.126;-0.994;2022-10-17T05:31:47;99980.06;;;13.32;100.00
62948;BME280;51940;52.126;-0.994;2022-10-17T05:34:12;99985.28;;;13.31;100.00
62948;BME280;51940;52.126;-0.994;2022-10-17T05:36:38;99988.18;;;13.31;100.00
62948;BME280;51940;52.126;-0.994;2022-10-17T05:39:03;99997.73;;;13.30;100.00
62948;BME280;51940;52.126;-0.994;2022-10-17T05:41:28;100009.25;;;13.28;100.00
62948;BME280;51940;52.126;-0.994;2022-10-17T05:43:54;100022.75;;;13.27;100.00
62948;BME280;51940;52.126;-0.994;2022-10-17T05:46:19;100021.58;;;13.25;100.00
62948;BME280;51940;52.126;-0.994;2022-10-17T05:48:45;100022.00;;;13.22;100.00
62948;BME280;51940;52.126;-0.994;2022-10-17T05:51:10;100025.85;;;13.20;100.00
62948;BME280;51940;52.126;-0.994;2022-10-17T05:53:38;100037.04;;;13.18;100.00
62948;BME280;51940;52.126;-0.994;2022-10-17T05:56:06;100041.09;;;13.15;100.00
62948;BME280;51940;52.126;-0.994;2022-10-17T05:58:33;100046.20;;;13.13;100.00
62948;BME280;51940;52.126;-0.994;2022-10-17T06:01:04;100053.28;;;13.10;100.00
62948;BME280;51940;52.126;-0.994;2022-10-17T06:03:30;100061.63;;;13.08;100.00
62948;BME280;51940;52.126;-0.994;2022-10-17T06:06:02;100070.15;;;13.05;100.00
62948;BME280;51940;52.126;-0.994;2022-10-17T06:08:28;100073.66;;;13.02;100.00
62948;BME280;51940;52.126;-0.994;2022-10-17T06:10:54;100079.70;;;12.98;100.00
62948;BME280;51940;52.126;-0.994;2022-10-17T06:13:19;100084.84;;;12.95;100.00
62948;BME280;51940;52.126;-0.994;2022-10-17T06:15:44;100087.48;;;12.92;100.00
62948;BME280;51940;52.126;-0.994;2022-10-17T06:18:10;100093.83;;;12.89;100.00
62948;BME280;51940;52.126;-0.994;2022-10-17T06:20:36;100098.96;;;12.86;100.00
62948;BME280;51940;52.126;-0.994;2022-10-17T06:23:02;100105.89;;;12.83;100.00
62948;BME280;51940;52.126;-0.994;2022-10-17T06:25:30;100109.42;;;12.80;100.00
62948;BME280;51940;52.126;-0.994;2022-10-17T06:27:55;100114.89;;;12.77;99.96
62948;BME280;51940;52.126;-0.994;2022-10-17T06:30:21;100126.45;;;12.75;99.96
62948;BME280;51940;52.126;-0.994;2022-10-17T06:32:47;100130.48;;;12.72;99.87
62948;BME280;51940;52.126;-0.994;2022-10-17T06:35:12;100133.80;;;12.69;99.79
62948;BME280;51940;52.126;-0.994;2022-10-17T06:37:38;100136.42;;;12.66;99.74
62948;BME280;51940;52.126;-0.994;2022-10-17T06:40:04;100142.27;;;12.63;99.57
62948;BME280;51940;52.126;-0.994;2022-10-17T06:42:32;100147.90;;;12.60;99.48
62948;BME280;51940;52.126;-0.994;2022-10-17T06:44:57;100153.89;;;12.58;99.39
62948;BME280;51940;52.126;-0.994;2022-10-17T06:47:23;100154.33;;;12.56;99.25
62948;BME280;51940;52.126;-0.994;2022-10-17T06:49:48;100159.77;;;12.54;99.17
62948;BME280;51940;52.126;-0.994;2022-10-17T06:52:13;100166.83;;;12.52;99.07
62948;BME280;51940;52.126;-0.994;2022-10-17T06:54:41;100179.23;;;12.50;99.05
62948;BME280;51940;52.126;-0.994;2022-10-17T06:57:07;100186.02;;;12.50;98.95
62948;BME280;51940;52.126;-0.994;2022-10-17T06:59:32;100189.95;;;12.50;98.85
62948;BME280;51940;52.126;-0.994;2022-10-17T07:02:00;100196.14;;;12.52;98.61
62948;BME280;51940;52.126;-0.994;2022-10-17T07:04:25;100200.58;;;12.53;98.53
62948;BME280;51940;52.126;-0.994;2022-10-17T07:06:51;100207.81;;;12.55;98.43
62948;BME280;51940;52.126;-0.994;2022-10-17T07:09:17;100208.14;;;12.57;98.28
62948;BME280;51940;52.126;-0.994;2022-10-17T07:11:43;100217.73;;;12.59;98.24
62948;BME280;51940;52.126;-0.994;2022-10-17T07:14:09;100220.50;;;12.61;98.06
62948;BME280;51940;52.126;-0.994;2022-10-17T07:16:34;100225.73;;;12.65;98.07
62948;BME280;51940;52.126;-0.994;2022-10-17T07:19:00;100234.48;;;12.71;98.04
62948;BME280;51940;52.126;-0.994;2022-10-17T07:21:26;100241.98;;;12.76;97.89
62948;BME280;51940;52.126;-0.994;2022-10-17T07:23:51;100250.54;;;12.83;97.78
62948;BME280;51940;52.126;-0.994;2022-10-17T07:26:18;100254.40;;;12.89;97.56
62948;BME280;51940;52.126;-0.994;2022-10-17T07:28:45;100255.11;;;12.94;97.45
62948;BME280;51940;52.126;-0.994;2022-10-17T07:31:13;100269.81;;;12.99;97.41
62948;BME280;51940;52.126;-0.994;2022-10-17T07:33:40;100268.71;;;13.04;97.33
62948;BME280;51940;52.126;-0.994;2022-10-17T07:36:06;100271.21;;;13.10;97.20
62948;BME280;51940;52.126;-0.994;2022-10-17T07:38:33;100277.28;;;13.15;97.21
62948;BME280;51940;52.126;-0.994;2022-10-17T07:41:00;100288.62;;;13.19;97.01
62948;BME280;51940;52.126;-0.994;2022-10-17T07:43:27;100293.55;;;13.21;96.87
62948;BME280;51940;52.126;-0.994;2022-10-17T07:45:53;100298.73;;;13.22;96.79
62948;BME280;51940;52.126;-0.994;2022-10-17T07:48:20;100299.77;;;13.22;96.76
62948;BME280;51940;52.126;-0.994;2022-10-17T07:50:46;100302.42;;;13.24;96.72
62948;BME280;51940;52.126;-0.994;2022-10-17T07:53:11;100315.46;;;13.25;96.70
62948;BME280;51940;52.126;-0.994;2022-10-17T07:55:38;100315.41;;;13.26;96.58
62948;BME280;51940;52.126;-0.994;2022-10-17T07:58:04;100324.63;;;13.29;96.55
62948;BME280;51940;52.126;-0.994;2022-10-17T08:00:30;100333.69;;;13.31;96.57
62948;BME280;51940;52.126;-0.994;2022-10-17T08:02:55;100336.31;;;13.33;96.45
62948;BME280;51940;52.126;-0.994;2022-10-17T08:05:20;100341.50;;;13.33;96.39
62948;BME280;51940;52.126;-0.994;2022-10-17T08:07:46;100346.09;;;13.35;96.38
62948;BME280;51940;52.126;-0.994;2022-10-17T08:10:13;100346.41;;;13.36;96.23
62948;BME280;51940;52.126;-0.994;2022-10-17T08:12:39;100353.65;;;13.39;96.13
62948;BME280;51940;52.126;-0.994;2022-10-17T08:15:06;100357.34;;;13.40;96.03
62948;BME280;51940;52.126;-0.994;2022-10-17T08:17:34;100356.02;;;13.43;96.05
62948;BME280;51940;52.126;-0.994;2022-10-17T08:19:59;100355.02;;;13.45;95.97
62948;BME280;51940;52.126;-0.994;2022-10-17T08:22:25;100360.30;;;13.48;95.97
62948;BME280;51940;52.126;-0.994;2022-10-17T08:24:50;100358.81;;;13.49;95.74
62948;BME280;51940;52.126;-0.994;2022-10-17T08:27:16;100361.41;;;13.52;95.71
62948;BME280;51940;52.126;-0.994;2022-10-17T08:29:47;100362.38;;;13.54;95.59
62948;BME280;51940;52.126;-0.994;2022-10-17T08:32:17;100371.23;;;13.58;95.51
62948;BME280;51940;52.126;-0.994;2022-10-17T08:34:42;100371.45;;;13.62;95.59
62948;BME280;51940;52.126;-0.994;2022-10-17T08:37:07;100371.71;;;13.69;95.44
62948;BME280;51940;52.126;-0.994;2022-10-17T08:39:33;100375.50;;;13.78;95.29
62948;BME280;51940;52.126;-0.994;2022-10-17T08:47:44;100386.41;;;14.02;94.29
62948;BME280;51940;52.126;-0.994;2022-10-17T08:50:30;100387.80;;;14.08;93.95
62948;BME280;51940;52.126;-0.994;2022-10-17T08:53:17;100393.38;;;14.13;93.59
62948;BME280;51940;52.126;-0.994;2022-10-17T08:55:51;100399.13;;;14.16;93.27
62948;BME280;51940;52.126;-0.994;2022-10-17T08:58:24;100400.05;;;14.21;93.10
62948;BME280;51940;52.126;-0.994;2022-10-17T09:01:05;100406.23;;;14.23;92.84
62948;BME280;51940;52.126;-0.994;2022-10-17T09:03:44;100412.18;;;14.23;92.46
62948;BME280;51940;52.126;-0.994;2022-10-17T09:06:38;100414.69;;;14.23;92.32
62948;BME280;51940;52.126;-0.994;2022-10-17T09:20:08;100448.00;;;14.42;90.96
62948;BME280;51940;52.126;-0.994;2022-10-17T09:23:03;100451.64;;;14.51;90.46
62948;BME280;51940;52.126;-0.994;2022-10-17T09:25:39;100456.94;;;14.57;89.98
62948;BME280;51940;52.126;-0.994;2022-10-17T09:28:30;100461.53;;;14.55;89.43
62948;BME280;51940;52.126;-0.994;2022-10-17T09:31:11;100471.55;;;14.51;89.02
62948;BME280;51940;52.126;-0.994;2022-10-17T09:33:42;100477.52;;;14.50;88.55
62948;BME280;51940;52.126;-0.994;2022-10-17T09:36:22;100479.14;;;14.50;88.26
62948;BME280;51940;52.126;-0.994;2022-10-17T09:38:51;100482.68;;;14.51;88.10
62948;BME280;51940;52.126;-0.994;2022-10-17T09:41:19;100485.72;;;14.51;87.72
62948;BME280;51940;52.126;-0.994;2022-10-17T09:43:45;100485.33;;;14.52;87.25
62948;BME280;51940;52.126;-0.994;2022-10-17T09:46:14;100494.13;;;14.52;86.79
62948;BME280;51940;52.126;-0.994;2022-10-17T09:48:45;100496.81;;;14.52;86.73
62948;BME280;51940;52.126;-0.994;2022-10-17T09:51:13;100499.86;;;14.52;86.40
62948;BME280;51940;52.126;-0.994;2022-10-17T09:53:42;100501.30;;;14.52;86.09
62948;BME280;51940;52.126;-0.994;2022-10-17T09:56:14;100511.03;;;14.51;85.71
62948;BME280;51940;52.126;-0.994;2022-10-17T09:58:48;100513.33;;;14.52;85.30
62948;BME280;51940;52.126;-0.994;2022-10-17T10:03:44;100522.40;;;14.54;84.94
62948;BME280;51940;52.126;-0.994;2022-10-17T10:06:19;100530.02;;;14.57;84.52
62948;BME280;51940;52.126;-0.994;2022-10-17T10:08:55;100536.18;;;14.60;83.71
62948;BME280;51940;52.126;-0.994;2022-10-17T10:11:46;100542.23;;;14.66;83.56
62948;BME280;51940;52.126;-0.994;2022-10-17T10:16:50;100548.90;;;14.75;81.28
62948;BME280;51940;52.126;-0.994;2022-10-17T10:19:30;100551.84;;;14.78;80.32
62948;BME280;51940;52.126;-0.994;2022-10-17T10:22:01;100550.34;;;14.80;78.93
62948;BME280;51940;52.126;-0.994;2022-10-17T10:24:27;100561.88;;;14.83;80.55
62948;BME280;51940;52.126;-0.994;2022-10-17T10:26:55;100568.20;;;14.86;81.50
62948;BME280;51940;52.126;-0.994;2022-10-17T10:31:52;100579.40;;;14.90;80.21
62948;BME280;51940;52.126;-0.994;2022-10-17T10:34:21;100582.64;;;14.89;79.52
62948;BME280;51940;52.126;-0.994;2022-10-17T10:37:02;100585.81;;;14.91;78.63
62948;BME280;51940;52.126;-0.994;2022-10-17T10:41:57;100598.40;;;14.95;77.02
62948;BME280;51940;52.126;-0.994;2022-10-17T10:44:24;100609.42;;;14.98;76.88
62948;BME280;51940;52.126;-0.994;2022-10-17T10:47:27;100616.23;;;15.03;77.05
62948;BME280;51940;52.126;-0.994;2022-10-17T10:52:40;100614.79;;;15.31;76.32
62948;BME280;51940;52.126;-0.994;2022-10-17T10:55:19;100613.70;;;15.44;76.49
62948;BME280;51940;52.126;-0.994;2022-10-17T10:57:49;100620.16;;;15.58;76.75
62948;BME280;51940;52.126;-0.994;2022-10-17T11:00:21;100620.70;;;15.71;76.74
62948;BME280;51940;52.126;-0.994;2022-10-17T11:05:59;100637.66;;;16.00;75.28
62948;BME280;51940;52.126;-0.994;2022-10-17T11:08:37;100638.48;;;16.02;73.63
62948;BME280;51940;52.126;-0.994;2022-10-17T11:11:27;100636.39;;;16.00;73.23
62948;BME280;51940;52.126;-0.994;2022-10-17T11:14:07;100635.23;;;15.94;72.34
62948;BME280;51940;52.126;-0.994;2022-10-17T11:16:36;100638.96;;;15.86;72.13
62948;BME280;51940;52.126;-0.994;2022-10-17T11:21:48;100645.52;;;15.80;71.76
62948;BME280;51940;52.126;-0.994;2022-10-17T11:24:24;100649.72;;;15.78;71.96
62948;BME280;51940;52.126;-0.994;2022-10-17T11:26:58;100653.05;;;15.80;72.13
62948;BME280;51940;52.126;-0.994;2022-10-17T11:29:29;100657.71;;;15.86;72.50
62948;BME280;51940;52.126;-0.994;2022-10-17T11:31:58;100668.81;;;15.95;72.68
62948;BME280;51940;52.126;-0.994;2022-10-17T11:34:27;100677.71;;;15.97;71.49
62948;BME280;51940;52.126;-0.994;2022-10-17T11:36:58;100674.70;;;15.96;71.09
62948;BME280;51940;52.126;-0.994;2022-10-17T11:42:34;100669.21;;;15.90;70.28
62948;BME280;51940;52.126;-0.994;2022-10-17T11:45:14;100671.95;;;15.89;69.01
62948;BME280;51940;52.126;-0.994;2022-10-17T11:50:33;100679.60;;;15.95;68.80
62948;BME280;51940;52.126;-0.994;2022-10-17T11:53:03;100678.94;;;16.11;69.33
62948;BME280;51940;52.126;-0.994;2022-10-17T11:55:31;100679.05;;;16.25;69.69
62948;BME280;51940;52.126;-0.994;2022-10-17T11:58:38;100682.45;;;16.38;69.22
62948;BME280;51940;52.126;-0.994;2022-10-17T12:01:28;100686.05;;;16.55;69.52
62948;BME280;51940;52.126;-0.994;2022-10-17T12:04:59;100678.29;;;16.67;68.05
62948;BME280;51940;52.126;-0.994;2022-10-17T12:07:08;100688.27;;;16.74;66.61
62948;BME280;51940;52.126;-0.994;2022-10-17T12:09:42;100684.70;;;16.78;66.35
62948;BME280;51940;52.126;-0.994;2022-10-17T12:12:23;100684.30;;;16.82;66.86
62948;BME280;51940;52.126;-0.994;2022-10-17T12:14:49;100688.09;;;16.86;66.53
62948;BME280;51940;52.126;-0.994;2022-10-17T12:17:45;100693.82;;;16.90;66.28
62948;BME280;51940;52.126;-0.994;2022-10-17T12:25:48;100698.39;;;17.01;65.33
62948;BME280;51940;52.126;-0.994;2022-10-17T12:28:15;100704.45;;;17.03;63.92
62948;BME280;51940;52.126;-0.994;2022-10-17T12:30:53;100715.17;;;17.05;64.45
62948;BME280;51940;52.126;-0.994;2022-10-17T12:33:31;100725.05;;;17.09;64.58
62948;BME280;51940;52.126;-0.994;2022-10-17T12:46:41;100748.19;;;17.31;62.11
62948;BME280;51940;52.126;-0.994;2022-10-17T12:53:03;100751.67;;;17.30;61.53
62948;BME280;51940;52.126;-0.994;2022-10-17T12:55:17;100748.22;;;17.27;61.15
62948;BME280;51940;52.126;-0.994;2022-10-17T13:03:13;100744.10;;;17.14;62.04
62948;BME280;51940;52.126;-0.994;2022-10-17T13:05:44;100753.29;;;17.11;62.29
62948;BME280;51940;52.126;-0.994;2022-10-17T13:08:21;100758.28;;;17.08;62.38
62948;BME280;51940;52.126;-0.994;2022-10-17T13:10:49;100764.20;;;17.05;62.61
62948;BME280;51940;52.126;-0.994;2022-10-17T13:13:24;100767.17;;;16.94;62.57
62948;BME280;51940;52.126;-0.994;2022-10-17T13:15:53;100762.20;;;16.84;62.66
62948;BME280;51940;52.126;-0.994;2022-10-17T13:18:23;100755.50;;;16.81;61.65
62948;BME280;51940;52.126;-0.994;2022-10-17T13:23:24;100752.52;;;16.92;62.10
62948;BME280;51940;52.126;-0.994;2022-10-17T13:26:26;100761.02;;;16.95;61.68
62948;BME280;51940;52.126;-0.994;2022-10-17T13:29:12;100772.75;;;16.95;61.60
62948;BME280;51940;52.126;-0.994;2022-10-17T13:31:40;100777.89;;;16.93;61.04
62948;BME280;51940;52.126;-0.994;2022-10-17T13:34:16;100771.85;;;16.90;60.35
62948;BME280;51940;52.126;-0.994;2022-10-17T13:36:42;100766.45;;;16.86;59.90
62948;BME280;51940;52.126;-0.994;2022-10-17T13:39:13;100769.84;;;16.83;59.72
62948;BME280;51940;52.126;-0.994;2022-10-17T13:41:40;100774.41;;;16.77;59.03
62948;BME280;51940;52.126;-0.994;2022-10-17T13:44:12;100777.93;;;16.71;60.02
62948;BME280;51940;52.126;-0.994;2022-10-17T13:46:38;100777.30;;;16.68;60.11
62948;BME280;51940;52.126;-0.994;2022-10-17T13:49:21;100779.71;;;16.67;59.62
62948;BME280;51940;52.126;-0.994;2022-10-17T13:51:50;100783.60;;;16.64;59.82
62948;BME280;51940;52.126;-0.994;2022-10-17T13:55:04;100788.92;;;16.61;60.01
62948;BME280;51940;52.126;-0.994;2022-10-17T13:57:03;100788.72;;;16.58;60.29
62948;BME280;51940;52.126;-0.994;2022-10-17T13:59:39;100788.35;;;16.54;60.53
62948;BME280;51940;52.126;-0.994;2022-10-17T14:02:13;100792.17;;;16.53;60.40
62948;BME280;51940;52.126;-0.994;2022-10-17T14:04:39;100791.55;;;16.55;60.03
62948;BME280;51940;52.126;-0.994;2022-10-17T14:07:05;100790.98;;;16.56;59.23
62948;BME280;51940;52.126;-0.994;2022-10-17T14:09:45;100794.39;;;16.56;59.41
62948;BME280;51940;52.126;-0.994;2022-10-17T14:12:11;100797.27;;;16.56;60.36
62948;BME280;51940;52.126;-0.994;2022-10-17T14:14:38;100803.73;;;16.56;61.03
62948;BME280;51940;52.126;-0.994;2022-10-17T14:17:22;100809.73;;;16.55;61.17
62948;BME280;51940;52.126;-0.994;2022-10-17T14:20:07;100812.39;;;16.52;60.45
62948;BME280;51940;52.126;-0.994;2022-10-17T14:22:40;100818.11;;;16.49;59.84